Time;durP1;ratioP1;P1;durP2;ratioP2;P2;SDS_P1;SDS_P2;PMS_P1;PMS_P2;Temp;Humidity;BMP_temperature;BMP_pressure;BME280_temperature;BME280_humidity;BME280_pressure;Samples;Min_cycle;Max_cycle;Signal;HPM_P1;HPM_P2
2023/06/04 00:01:23;;;;;;;2.03;1.80;;;19.90;21.50;;;;;;10441525;28;20835;-72
2023/06/04 00:06:28;;;;;;;2.67;2.03;;;19.80;21.60;;;;;;10448580;28;20909;-72
2023/06/04 00:11:33;;;;;;;2.27;1.63;;;19.70;21.90;;;;;;10439726;28;20248;-72
2023/06/04 00:16:37;;;;;;;2.47;1.77;;;19.60;22.40;;;;;;10445743;28;20232;-72
2023/06/04 00:21:41;;;;;;;1.90;1.53;;;19.50;21.80;;;;;;10447726;28;20229;-72
2023/06/04 00:26:45;;;;;;;1.80;1.50;;;19.50;22.10;;;;;;10439857;28;20313;-72
2023/06/04 00:31:48;;;;;;;1.70;1.60;;;19.50;22.00;;;;;;10451820;28;20275;-73
2023/06/04 00:36:53;;;;;;;2.00;1.80;;;19.40;22.00;;;;;;10440701;28;20263;-72
2023/06/04 00:41:56;;;;;;;3.57;1.67;;;19.40;22.20;;;;;;10434873;28;20595;-72
2023/06/04 00:46:59;;;;;;;2.73;1.60;;;19.30;22.00;;;;;;10442295;28;20266;-72
2023/06/04 00:52:05;;;;;;;3.70;1.50;;;19.20;22.00;;;;;;10446376;28;20307;-72
2023/06/04 00:57:09;;;;;;;2.50;1.50;;;19.20;22.30;;;;;;10442293;28;20238;-72
2023/06/04 01:02:15;;;;;;;1.70;1.60;;;19.10;22.20;;;;;;10444772;28;20232;-73
2023/06/04 01:07:20;;;;;;;1.73;1.50;;;19.00;22.30;;;;;;10431839;28;20736;-72
2023/06/04 01:12:25;;;;;;;1.80;1.70;;;18.90;22.50;;;;;;10438429;28;20232;-72
2023/06/04 01:17:37;;;;;;;1.83;1.70;;;18.90;22.50;;;;;;10443988;28;20229;-72
2023/06/04 01:22:49;;;;;;;1.60;1.50;;;18.80;22.80;;;;;;10439806;28;20332;-72
2023/06/04 01:27:55;;;;;;;3.47;1.60;;;18.70;22.80;;;;;;10449255;28;20260;-72
2023/06/04 01:33:00;;;;;;;1.73;1.60;;;18.60;22.60;;;;;;10449878;28;20247;-72
2023/06/04 01:38:05;;;;;;;2.33;1.90;;;18.60;22.60;;;;;;10437920;28;20290;-72
2023/06/04 01:43:08;;;;;;;1.60;1.50;;;18.50;22.90;;;;;;10437485;28;20274;-72
2023/06/04 01:48:13;;;;;;;2.03;1.60;;;18.40;22.70;;;;;;10435447;28;20241;-72
2023/06/04 01:53:17;;;;;;;1.63;1.53;;;18.30;22.80;;;;;;10436986;28;20747;-72
2023/06/04 01:58:26;;;;;;;1.80;1.70;;;18.30;23.10;;;;;;10434854;28;20606;-72
2023/06/04 02:03:35;;;;;;;2.50;1.77;;;18.20;23.00;;;;;;10436204;28;21069;-72
2023/06/04 02:08:41;;;;;;;3.53;1.93;;;18.10;23.10;;;;;;10449921;28;20303;-72
2023/06/04 02:13:44;;;;;;;2.00;1.90;;;18.00;23.20;;;;;;10442563;28;20328;-72
2023/06/04 02:18:47;;;;;;;1.80;1.70;;;18.00;23.20;;;;;;10447374;28;20229;-72
2023/06/04 02:23:51;;;;;;;1.90;1.80;;;17.80;23.20;;;;;;10439365;28;20814;-72
2023/06/04 02:28:55;;;;;;;1.80;1.70;;;17.80;23.70;;;;;;10435155;28;20268;-72
2023/06/04 02:33:58;;;;;;;1.97;1.77;;;17.70;23.40;;;;;;10438495;28;20327;-71
2023/06/04 02:39:03;;;;;;;1.63;1.53;;;17.60;23.40;;;;;;10444324;28;20232;-72
2023/06/04 02:44:06;;;;;;;2.93;1.70;;;17.50;23.70;;;;;;10451099;28;20269;-72
2023/06/04 02:49:13;;;;;;;2.87;1.60;;;17.50;23.60;;;;;;10445002;28;20774;-73
2023/06/04 02:54:18;;;;;;;2.37;1.63;;;17.40;23.60;;;;;;10448906;28;20323;-72
2023/06/04 02:59:21;;;;;;;2.70;1.63;;;17.40;23.60;;;;;;10446721;28;20261;-72
2023/06/04 03:04:24;;;;;;;2.60;1.77;;;17.30;23.50;;;;;;10438738;28;20270;-71
2023/06/04 03:09:30;;;;;;;1.93;1.70;;;17.20;23.40;;;;;;10451891;28;20255;-72
2023/06/04 03:14:33;;;;;;;3.23;1.70;;;17.10;23.40;;;;;;10443699;28;20324;-72
2023/06/04 03:19:37;;;;;;;1.80;1.70;;;17.00;23.30;;;;;;10444164;28;20230;-72
2023/06/04 03:24:42;;;;;;;1.60;1.50;;;17.00;23.30;;;;;;10444430;28;21254;-72
2023/06/04 03:29:45;;;;;;;1.60;1.50;;;16.90;23.90;;;;;;10447645;28;20229;-72
2023/06/04 03:34:49;;;;;;;1.90;1.60;;;16.90;23.60;;;;;;10443014;28;20821;-72
2023/06/04 03:39:53;;;;;;;2.57;1.50;;;16.80;23.70;;;;;;10447531;28;20236;-72
2023/06/04 03:44:57;;;;;;;2.00;1.77;;;16.80;24.10;;;;;;10439753;28;20242;-72
2023/06/04 03:50:01;;;;;;;2.20;1.70;;;16.80;24.10;;;;;;10440588;28;20224;-72
2023/06/04 03:55:06;;;;;;;2.13;1.73;;;16.70;24.10;;;;;;10442990;28;20316;-72
2023/06/04 04:00:12;;;;;;;1.60;1.50;;;16.60;24.60;;;;;;10445051;28;20252;-72
2023/06/04 04:05:15;;;;;;;1.80;1.57;;;16.60;24.30;;;;;;10439158;28;20278;-72
2023/06/04 04:10:20;;;;;;;2.20;1.93;;;16.60;24.30;;;;;;10443357;28;20229;-72
2023/06/04 04:15:24;;;;;;;2.27;1.90;;;16.50;24.70;;;;;;10442109;28;20541;-72
2023/06/04 04:20:27;;;;;;;2.47;1.90;;;16.50;24.60;;;;;;10436314;28;20315;-72
2023/06/04 04:25:32;;;;;;;2.23;2.00;;;16.50;24.70;;;;;;10446832;28;20239;-72
2023/06/04 04:30:35;;;;;;;2.47;2.17;;;16.50;25.00;;;;;;10448589;28;20228;-72
2023/06/04 04:35:39;;;;;;;2.03;1.87;;;16.50;24.70;;;;;;10443768;28;20996;-72
2023/06/04 04:40:47;;;;;;;2.93;1.80;;;16.40;24.70;;;;;;10440387;28;20233;-72
2023/06/04 04:45:50;;;;;;;2.83;2.10;;;16.50;25.10;;;;;;10445510;28;20331;-72
2023/06/04 04:50:53;;;;;;;2.27;1.83;;;16.40;24.80;;;;;;10442875;28;20758;-72
2023/06/04 04:55:58;;;;;;;2.13;1.97;;;16.50;24.90;;;;;;10444153;28;20229;-73
2023/06/04 05:01:01;;;;;;;2.27;1.80;;;16.40;25.10;;;;;;10443476;28;20228;-72
2023/06/04 05:06:04;;;;;;;3.43;1.70;;;16.50;25.10;;;;;;10440392;28;20248;-72
2023/06/04 05:11:09;;;;;;;2.83;1.80;;;16.50;25.00;;;;;;10441269;28;20243;-72
2023/06/04 05:16:13;;;;;;;2.03;1.60;;;16.60;25.20;;;;;;10448593;28;20290;-72
2023/06/04 05:21:16;;;;;;;2.30;1.70;;;16.70;25.20;;;;;;10442276;28;20235;-72
2023/06/04 05:26:23;;;;;;;2.30;1.70;;;16.80;25.20;;;;;;10446717;28;20236;-72
2023/06/04 05:31:28;;;;;;;3.97;1.80;;;16.90;25.30;;;;;;10441592;28;20290;-72
2023/06/04 05:36:32;;;;;;;3.30;1.53;;;17.00;25.20;;;;;;10445045;28;20229;-72
2023/06/04 05:41:36;;;;;;;1.83;1.73;;;17.10;25.30;;;;;;10429746;28;20237;-72
2023/06/04 05:46:40;;;;;;;2.03;1.70;;;17.20;25.60;;;;;;10444666;28;20288;-72
2023/06/04 05:51:43;;;;;;;1.97;1.80;;;17.30;25.30;;;;;;10444887;28;20921;-72
2023/06/04 05:56:51;;;;;;;2.40;1.83;;;17.40;25.40;;;;;;10449605;28;20228;-72
2023/06/04 06:01:54;;;;;;;1.77;1.67;;;17.50;25.60;;;;;;10438873;28;20260;-72
2023/06/04 06:06:58;;;;;;;2.60;1.70;;;17.60;25.40;;;;;;10433274;28;20294;-72
2023/06/04 06:12:03;;;;;;;1.97;1.70;;;17.80;25.50;;;;;;10442266;28;20239;-73
2023/06/04 06:17:06;;;;;;;2.03;1.77;;;18.00;25.50;;;;;;10446465;28;20753;-73
2023/06/04 06:22:10;;;;;;;2.87;1.80;;;18.10;25.40;;;;;;10449164;28;20225;-72
2023/06/04 06:27:15;;;;;;;2.03;1.60;;;18.30;25.60;;;;;;10451403;28;20282;-73
2023/06/04 06:32:19;;;;;;;2.13;1.83;;;18.50;25.60;;;;;;10443271;28;20320;-72
2023/06/04 06:37:22;;;;;;;2.10;1.90;;;18.70;26.00;;;;;;10446774;28;20225;-73
2023/06/04 06:42:27;;;;;;;3.63;1.97;;;19.00;25.50;;;;;;10448849;28;20237;-73
2023/06/04 06:47:30;;;;;;;2.37;1.90;;;19.20;25.30;;;;;;10449599;28;20231;-72
2023/06/04 06:52:33;;;;;;;2.47;1.70;;;19.40;24.90;;;;;;10447647;28;20713;-72
2023/06/04 06:57:38;;;;;;;3.00;2.10;;;19.50;25.00;;;;;;10448430;28;20723;-73
2023/06/04 07:02:41;;;;;;;2.13;2.00;;;19.70;24.50;;;;;;10444791;28;20348;-73
2023/06/04 07:07:46;;;;;;;2.07;1.97;;;20.00;24.70;;;;;;10439924;28;20229;-73
2023/06/04 07:12:50;;;;;;;3.00;1.93;;;20.20;24.60;;;;;;10444802;28;20242;-73
2023/06/04 07:17:54;;;;;;;2.00;1.80;;;20.40;24.30;;;;;;10447635;28;20808;-73
2023/06/04 07:22:58;;;;;;;2.20;2.00;;;20.60;24.20;;;;;;10446683;28;20306;-73
2023/06/04 07:28:03;;;;;;;2.07;1.93;;;20.80;24.20;;;;;;10450678;28;20308;-72
2023/06/04 07:33:07;;;;;;;1.83;1.73;;;21.10;23.90;;;;;;10437823;28;20319;-73
2023/06/04 07:38:10;;;;;;;2.73;1.90;;;21.20;23.90;;;;;;10444879;28;20632;-73
2023/06/04 07:43:14;;;;;;;1.90;1.70;;;21.50;23.80;;;;;;10440252;28;20232;-73
2023/06/04 07:48:18;;;;;;;4.10;2.07;;;21.60;23.60;;;;;;10431761;28;20231;-71
2023/06/04 07:53:21;;;;;;;2.60;2.40;;;21.90;23.60;;;;;;10435199;28;20736;-71
2023/06/04 07:58:26;;;;;;;2.10;2.00;;;22.10;23.50;;;;;;10432492;28;20781;-71
2023/06/04 08:03:29;;;;;;;3.43;1.97;;;22.30;23.20;;;;;;10436804;28;20224;-71
2023/06/04 08:08:33;;;;;;;2.10;1.90;;;22.40;23.50;;;;;;10430057;28;20229;-71
2023/06/04 08:13:38;;;;;;;2.47;2.17;;;22.70;23.20;;;;;;10425936;28;20233;-71
2023/06/04 08:18:41;;;;;;;2.50;2.00;;;22.90;22.70;;;;;;10434960;28;20230;-71
2023/06/04 08:23:45;;;;;;;4.17;2.20;;;23.10;22.90;;;;;;10439686;28;20230;-72
2023/06/04 08:28:50;;;;;;;2.43;2.23;;;23.30;23.00;;;;;;10439680;28;20284;-72
2023/06/04 08:33:53;;;;;;;2.50;2.30;;;23.50;22.30;;;;;;10438552;28;20266;-72
2023/06/04 08:38:56;;;;;;;2.67;2.23;;;23.70;22.50;;;;;;10437040;28;20958;-71
2023/06/04 08:44:02;;;;;;;2.13;2.03;;;23.90;22.30;;;;;;10438136;28;20242;-72
2023/06/04 08:49:06;;;;;;;2.27;2.07;;;24.10;22.20;;;;;;10435333;28;20611;-71
2023/06/04 08:54:10;;;;;;;2.93;2.20;;;24.30;22.00;;;;;;10443931;28;20228;-72
2023/06/04 08:59:16;;;;;;;2.40;2.20;;;24.50;21.60;;;;;;10427234;28;20318;-72
2023/06/04 09:04:19;;;;;;;2.43;2.10;;;24.70;21.40;;;;;;10437641;28;20250;-72
2023/06/04 09:09:25;;;;;;;2.53;2.30;;;24.90;21.60;;;;;;10438962;28;20587;-72
2023/06/04 09:14:30;;;;;;;2.60;2.40;;;25.00;21.20;;;;;;10438532;28;20593;-72
2023/06/04 09:19:33;;;;;;;2.00;1.90;;;25.20;21.00;;;;;;10443798;28;20802;-72
2023/06/04 09:24:41;;;;;;;2.57;1.97;;;25.40;20.90;;;;;;10439509;28;20229;-72
2023/06/04 09:29:52;;;;;;;2.53;2.20;;;25.60;19.70;;;;;;10432548;28;20307;-72
2023/06/04 09:34:57;;;;;;;2.57;2.30;;;25.80;19.60;;;;;;10433108;28;20738;-71
2023/06/04 09:40:00;;;;;;;2.30;2.10;;;26.00;19.90;;;;;;10434021;28;20891;-71
2023/06/04 09:45:06;;;;;;;2.57;2.37;;;26.10;20.10;;;;;;10436950;28;20599;-72
2023/06/04 09:50:11;;;;;;;2.53;2.07;;;26.20;19.20;;;;;;10430203;28;20275;-73
2023/06/04 09:55:22;;;;;;;3.33;2.20;;;26.30;19.60;;;;;;10445361;28;20304;-72
2023/06/04 10:00:28;;;;;;;3.80;2.27;;;26.50;19.30;;;;;;10444348;28;20323;-74
2023/06/04 10:05:33;;;;;;;4.30;2.33;;;26.60;19.40;;;;;;10437692;28;20286;-74
2023/06/04 10:10:38;;;;;;;3.10;2.40;;;26.80;19.00;;;;;;10436494;28;20282;-74
2023/06/04 10:15:43;;;;;;;2.40;2.20;;;26.80;19.00;;;;;;10438977;28;20216;-75
2023/06/04 10:20:46;;;;;;;2.40;2.17;;;26.90;18.60;;;;;;10436462;28;20241;-74
2023/06/04 10:25:52;;;;;;;2.40;2.20;;;27.00;18.90;;;;;;10447256;28;20312;-75
2023/06/04 10:30:56;;;;;;;2.70;2.50;;;27.00;18.80;;;;;;10446633;28;20683;-74
2023/06/04 10:36:15;;;;;;;2.77;2.40;;;27.10;18.20;;;;;;10446302;28;20727;-74
2023/06/04 10:41:21;;;;;;;2.90;2.50;;;27.10;18.50;;;;;;10445441;28;20225;-74
2023/06/04 10:46:25;;;;;;;2.63;2.30;;;27.20;18.30;;;;;;10442788;28;20252;-75
2023/06/04 10:51:32;;;;;;;2.30;2.10;;;27.30;18.10;;;;;;10445549;28;20236;-74
2023/06/04 10:56:37;;;;;;;2.40;2.20;;;27.30;17.50;;;;;;10437490;28;20222;-75
2023/06/04 11:01:42;;;;;;;2.90;2.60;;;27.50;18.00;;;;;;10441917;28;20228;-75
2023/06/04 11:06:45;;;;;;;2.53;2.33;;;27.50;17.60;;;;;;10424196;28;20250;-73
2023/06/04 11:11:58;;;;;;;2.93;2.60;;;27.60;17.50;;;;;;10416871;28;20239;-78
2023/06/04 11:17:12;;;;;;;2.47;2.27;;;27.60;16.80;;;;;;10424364;28;20228;-77
2023/06/04 11:22:15;;;;;;;3.17;2.30;;;27.60;16.50;;;;;;10415039;28;20218;-77
2023/06/04 11:27:19;;;;;;;2.40;2.20;;;27.60;17.30;;;;;;10415043;28;20923;-77
2023/06/04 11:32:39;;;;;;;2.77;2.57;;;27.70;17.20;;;;;;10420754;28;20297;-77
2023/06/04 11:37:53;;;;;;;2.97;2.43;;;27.80;16.90;;;;;;10425246;28;20785;-78
2023/06/04 11:42:57;;;;;;;3.00;2.67;;;27.90;16.80;;;;;;10431581;28;20302;-76
2023/06/04 11:48:02;;;;;;;2.70;2.50;;;28.00;16.70;;;;;;10427034;28;20235;-76
2023/06/04 11:53:05;;;;;;;2.70;2.43;;;28.00;16.60;;;;;;10432000;28;20240;-77
2023/06/04 11:58:09;;;;;;;2.87;2.67;;;28.00;16.40;;;;;;10437452;28;20227;-76
2023/06/04 12:03:13;;;;;;;2.70;2.50;;;28.00;16.30;;;;;;10436819;28;20228;-77
2023/06/04 12:08:17;;;;;;;6.10;2.50;;;28.10;16.20;;;;;;10437016;28;20314;-77
2023/06/04 12:13:20;;;;;;;2.80;2.60;;;28.10;15.90;;;;;;10431931;28;20228;-77
2023/06/04 12:18:26;;;;;;;2.87;2.67;;;28.20;16.20;;;;;;10440126;28;20792;-77
2023/06/04 12:23:29;;;;;;;2.77;2.57;;;28.20;15.20;;;;;;10436292;28;20237;-76
2023/06/04 12:28:34;;;;;;;3.30;2.60;;;28.30;15.90;;;;;;10435180;28;20245;-76
2023/06/04 12:33:39;;;;;;;2.90;2.70;;;28.20;15.70;;;;;;10430429;28;20225;-77
2023/06/04 12:38:42;;;;;;;2.73;2.53;;;28.20;15.00;;;;;;10433026;28;20300;-76
2023/06/04 12:43:46;;;;;;;2.43;2.23;;;28.10;15.50;;;;;;10427817;28;20743;-77
2023/06/04 12:48:51;;;;;;;2.80;2.60;;;27.90;15.40;;;;;;10433506;28;20225;-76
2023/06/04 12:53:54;;;;;;;3.40;3.07;;;28.00;15.20;;;;;;10442223;28;20228;-76
2023/06/04 12:58:58;;;;;;;3.37;2.47;;;28.10;15.30;;;;;;10439608;28;20696;-76
2023/06/04 13:04:02;;;;;;;5.10;2.97;;;28.10;15.40;;;;;;10435847;28;20249;-76
2023/06/04 13:09:08;;;;;;;5.40;2.80;;;28.00;15.00;;;;;;10437071;28;20637;-78
2023/06/04 13:14:12;;;;;;;2.67;2.47;;;28.00;15.30;;;;;;10437406;28;20232;-76
2023/06/04 13:19:16;;;;;;;2.90;2.70;;;28.00;15.20;;;;;;10433324;28;20228;-77
2023/06/04 13:24:20;;;;;;;2.90;2.70;;;28.10;15.30;;;;;;10427708;28;20228;-76
2023/06/04 13:29:23;;;;;;;5.20;3.20;;;28.20;15.30;;;;;;10429320;28;20225;-77
2023/06/04 13:34:27;;;;;;;3.40;3.10;;;28.20;15.10;;;;;;10427640;28;20268;-77
2023/06/04 13:39:30;;;;;;;3.80;3.40;;;28.20;14.60;;;;;;10436444;28;20564;-77
2023/06/04 13:44:34;;;;;;;3.50;3.30;;;28.20;14.50;;;;;;10432668;28;20239;-76
2023/06/04 13:49:38;;;;;;;3.70;3.40;;;28.20;14.40;;;;;;10437154;28;20882;-76
2023/06/04 13:54:41;;;;;;;3.50;3.20;;;28.20;14.70;;;;;;10429752;28;20231;-77
2023/06/04 13:59:45;;;;;;;3.43;3.13;;;28.10;14.60;;;;;;10435830;28;20225;-76
2023/06/04 14:04:54;;;;;;;5.70;3.20;;;28.20;14.70;;;;;;10436898;28;20295;-77
2023/06/04 14:09:57;;;;;;;4.10;3.57;;;28.20;13.90;;;;;;10435497;28;20237;-77
2023/06/04 14:15:00;;;;;;;4.00;3.30;;;28.30;13.80;;;;;;10436296;28;20217;-76
2023/06/04 14:20:08;;;;;;;3.40;3.13;;;28.10;13.90;;;;;;10434279;28;20319;-77
2023/06/04 14:25:11;;;;;;;3.20;3.00;;;28.10;13.60;;;;;;10415975;28;20307;-76
2023/06/04 14:30:14;;;;;;;3.17;2.97;;;28.10;14.30;;;;;;10425768;28;20718;-77
2023/06/04 14:35:19;;;;;;;3.53;3.23;;;28.10;14.30;;;;;;10429003;28;20224;-76
2023/06/04 14:40:22;;;;;;;3.73;3.43;;;28.20;14.10;;;;;;10438993;28;20263;-77
2023/06/04 14:45:25;;;;;;;3.43;3.20;;;28.30;14.30;;;;;;10430282;28;20232;-76
2023/06/04 14:50:30;;;;;;;3.60;3.30;;;28.40;14.00;;;;;;10438772;28;20284;-77
2023/06/04 14:55:33;;;;;;;3.50;3.20;;;28.40;13.50;;;;;;10441592;28;20350;-76
2023/06/04 15:00:36;;;;;;;3.47;3.10;;;28.40;13.80;;;;;;10430331;28;20225;-76
2023/06/04 15:05:41;;;;;;;3.23;3.03;;;28.40;13.70;;;;;;10442974;28;20225;-76
2023/06/04 15:10:44;;;;;;;3.50;3.20;;;28.40;13.50;;;;;;10437994;28;20228;-77
2023/06/04 15:15:48;;;;;;;3.10;2.90;;;28.30;13.50;;;;;;10445383;28;20347;-76
2023/06/04 15:20:52;;;;;;;3.50;3.20;;;28.30;13.60;;;;;;10433370;28;20316;-77
2023/06/04 15:25:55;;;;;;;3.07;2.87;;;28.20;13.50;;;;;;10433591;28;20237;-76
2023/06/04 15:30:58;;;;;;;3.00;2.80;;;28.20;13.70;;;;;;10437134;28;20240;-77
2023/06/04 15:36:03;;;;;;;3.07;2.77;;;28.20;13.70;;;;;;10441537;28;20229;-75
2023/06/04 15:41:07;;;;;;;3.30;3.00;;;28.10;13.50;;;;;;10431108;28;20301;-76
2023/06/04 15:46:10;;;;;;;3.83;3.53;;;28.00;13.70;;;;;;10428590;28;20241;-77
2023/06/04 15:51:15;;;;;;;3.30;3.00;;;28.00;13.80;;;;;;10429586;28;20238;-77
2023/06/04 15:56:18;;;;;;;3.33;3.03;;;28.00;13.50;;;;;;10436669;28;20758;-76
2023/06/04 16:01:22;;;;;;;3.00;2.80;;;28.00;13.60;;;;;;10437680;28;20594;-77
2023/06/04 16:06:26;;;;;;;3.20;2.90;;;27.90;13.60;;;;;;10447682;28;20306;-77
2023/06/04 16:11:29;;;;;;;3.10;2.90;;;27.90;13.50;;;;;;10424161;28;20313;-77
2023/06/04 16:16:33;;;;;;;3.27;3.07;;;27.80;13.90;;;;;;10450087;28;20229;-76
2023/06/04 16:21:38;;;;;;;2.97;2.77;;;27.80;13.70;;;;;;10444813;28;20717;-77
2023/06/04 16:26:41;;;;;;;3.93;3.57;;;27.70;13.50;;;;;;10439698;28;20245;-77
2023/06/04 16:31:44;;;;;;;3.77;3.47;;;27.70;13.60;;;;;;10435687;28;20787;-77
2023/06/04 16:36:49;;;;;;;4.70;3.20;;;27.60;13.50;;;;;;10448711;28;20239;-76
2023/06/04 16:41:52;;;;;;;5.13;3.97;;;27.50;13.50;;;;;;10435140;28;20248;-77
2023/06/04 16:46:55;;;;;;;3.17;2.97;;;27.40;13.60;;;;;;10435925;28;20335;-77
2023/06/04 16:52:00;;;;;;;4.90;4.40;;;27.40;13.60;;;;;;10439853;28;20233;-77
2023/06/04 16:57:04;;;;;;;5.53;5.13;;;27.40;13.60;;;;;;10437311;28;20319;-77
2023/06/04 17:02:07;;;;;;;5.53;5.13;;;27.40;13.60;;;;;;10431605;28;20243;-76
2023/06/04 17:07:12;;;;;;;7.83;6.90;;;27.30;13.50;;;;;;10440873;28;20252;-76
2023/06/04 17:12:15;;;;;;;4.90;4.50;;;27.20;13.40;;;;;;10428627;28;20232;-77
2023/06/04 17:17:18;;;;;;;4.33;3.90;;;27.10;13.70;;;;;;10432783;28;20248;-77
2023/06/04 17:22:23;;;;;;;3.90;3.60;;;26.90;13.70;;;;;;10433586;28;20263;-76
2023/06/04 17:27:26;;;;;;;3.77;3.40;;;26.90;13.70;;;;;;10422050;28;20229;-77
2023/06/04 17:32:29;;;;;;;4.03;3.30;;;26.90;13.80;;;;;;10437966;28;20235;-77
2023/06/04 17:37:35;;;;;;;4.13;3.70;;;26.80;13.70;;;;;;10434804;28;20228;-77
2023/06/04 17:42:38;;;;;;;3.97;3.67;;;26.80;14.40;;;;;;10436226;28;20247;-76
2023/06/04 17:47:41;;;;;;;4.57;4.13;;;26.80;13.90;;;;;;10438697;28;20224;-77
2023/06/04 17:52:46;;;;;;;4.20;3.90;;;26.80;13.90;;;;;;10432759;28;20320;-77
2023/06/04 17:57:50;;;;;;;3.87;3.57;;;26.70;14.00;;;;;;10438516;28;20233;-76
2023/06/04 18:02:53;;;;;;;3.40;3.20;;;26.70;14.20;;;;;;10425282;28;20312;-77
2023/06/04 18:07:58;;;;;;;4.20;3.90;;;26.60;14.10;;;;;;10432927;28;20726;-77
2023/06/04 18:13:01;;;;;;;4.37;4.07;;;26.60;14.20;;;;;;10440485;28;20764;-76
2023/06/04 18:18:04;;;;;;;4.00;3.70;;;26.70;14.30;;;;;;10446466;28;20790;-77
2023/06/04 18:23:11;;;;;;;3.73;3.43;;;26.70;14.30;;;;;;10448985;28;20236;-77
2023/06/04 18:28:16;;;;;;;5.10;3.13;;;26.70;15.00;;;;;;10443738;28;20224;-77
2023/06/04 18:33:22;;;;;;;3.90;3.33;;;26.80;15.50;;;;;;10457338;28;20734;-76
2023/06/04 18:38:27;;;;;;;3.90;3.57;;;26.80;15.40;;;;;;10449091;28;20245;-77
2023/06/04 18:43:30;;;;;;;3.70;3.40;;;26.70;15.10;;;;;;10455144;28;20224;-77
2023/06/04 18:48:34;;;;;;;4.23;3.60;;;26.70;15.30;;;;;;10448362;28;20676;-76
2023/06/04 18:53:38;;;;;;;3.67;3.37;;;26.70;15.30;;;;;;10444709;28;20228;-76
2023/06/04 18:58:44;;;;;;;3.93;3.53;;;26.50;15.30;;;;;;10449927;28;20674;-77
2023/06/04 19:03:50;;;;;;;4.93;3.70;;;26.50;15.40;;;;;;10444655;28;20890;-76
2023/06/04 19:08:55;;;;;;;5.47;3.83;;;26.40;15.70;;;;;;10452368;28;20237;-77
2023/06/04 19:14:00;;;;;;;5.37;4.07;;;26.30;16.20;;;;;;10439322;28;20553;-76
2023/06/04 19:19:07;;;;;;;4.63;4.20;;;26.20;16.60;;;;;;10430849;28;20221;-76
2023/06/04 19:24:12;;;;;;;4.10;3.80;;;26.10;16.70;;;;;;10431568;28;20294;-78
2023/06/04 19:29:16;;;;;;;3.80;3.50;;;25.90;17.00;;;;;;10435414;28;20229;-76
2023/06/04 19:34:19;;;;;;;5.30;3.57;;;25.80;16.80;;;;;;10431527;28;20480;-77
2023/06/04 19:39:24;;;;;;;4.80;4.40;;;25.60;16.90;;;;;;10430152;28;20235;-77
2023/06/04 19:44:30;;;;;;;4.57;3.77;;;25.50;17.40;;;;;;10426915;28;20234;-75
2023/06/04 19:49:33;;;;;;;4.17;3.70;;;25.40;17.50;;;;;;10426198;28;20756;-77
2023/06/04 19:54:38;;;;;;;3.87;3.57;;;25.30;17.90;;;;;;10432047;28;20253;-76
2023/06/04 19:59:41;;;;;;;3.43;3.23;;;25.20;18.10;;;;;;10429355;28;20229;-76
2023/06/04 20:04:44;;;;;;;4.40;4.00;;;25.00;17.90;;;;;;10443506;28;20312;-76
2023/06/04 20:09:49;;;;;;;4.13;3.83;;;25.00;18.00;;;;;;10442979;28;20328;-77
2023/06/04 20:14:52;;;;;;;4.20;3.37;;;24.90;18.40;;;;;;10442141;28;20309;-77
2023/06/04 20:19:56;;;;;;;4.53;4.13;;;24.70;18.30;;;;;;10439583;28;20715;-77
2023/06/04 20:25:00;;;;;;;4.10;3.70;;;24.60;18.30;;;;;;10444749;28;20232;-75
2023/06/04 20:30:05;;;;;;;4.10;3.70;;;24.50;18.20;;;;;;10437807;28;20680;-77
2023/06/04 20:35:09;;;;;;;3.80;3.47;;;24.40;18.20;;;;;;10439686;28;20247;-77
2023/06/04 20:40:13;;;;;;;5.13;3.70;;;24.30;18.50;;;;;;10445983;28;20231;-77
2023/06/04 20:45:17;;;;;;;3.93;3.63;;;24.30;19.00;;;;;;10440990;28;20224;-77
2023/06/04 20:50:20;;;;;;;4.17;3.87;;;24.30;18.70;;;;;;10438888;28;20220;-76
2023/06/04 20:55:25;;;;;;;4.23;3.80;;;24.30;18.90;;;;;;10439736;28;20244;-76
2023/06/04 21:00:29;;;;;;;3.70;3.40;;;24.20;19.10;;;;;;10437720;28;20248;-76
2023/06/04 21:05:32;;;;;;;3.90;3.60;;;24.10;19.00;;;;;;10443272;28;20308;-75
2023/06/04 21:10:37;;;;;;;4.13;3.73;;;24.10;19.20;;;;;;10442509;28;20312;-76
2023/06/04 21:15:40;;;;;;;3.83;3.50;;;24.00;19.50;;;;;;10445306;28;20227;-77
2023/06/04 21:20:43;;;;;;;4.40;3.57;;;24.00;19.40;;;;;;10437532;28;20318;-77
2023/06/04 21:25:49;;;;;;;4.10;3.70;;;23.90;19.60;;;;;;10441736;28;20252;-76
2023/06/04 21:30:52;;;;;;;3.80;3.50;;;23.90;19.80;;;;;;10437578;28;20291;-77
2023/06/04 21:35:55;;;;;;;3.90;3.50;;;23.80;19.70;;;;;;10445707;28;20313;-77
2023/06/04 21:41:00;;;;;;;3.83;3.53;;;23.60;19.70;;;;;;10434866;28;20228;-77
2023/06/04 21:46:03;;;;;;;4.00;3.67;;;23.40;20.00;;;;;;10436253;28;20212;-77
2023/06/04 21:51:07;;;;;;;5.00;4.60;;;23.20;19.90;;;;;;10451891;28;20244;-76
2023/06/04 21:56:12;;;;;;;4.43;4.03;;;23.10;20.20;;;;;;10445285;28;20233;-77
2023/06/04 22:01:15;;;;;;;4.40;4.10;;;23.00;20.50;;;;;;10444858;28;20295;-77
2023/06/04 22:06:18;;;;;;;4.00;3.70;;;23.00;20.40;;;;;;10444901;28;20233;-76
2023/06/04 22:11:23;;;;;;;4.07;3.77;;;23.00;20.50;;;;;;10446518;28;21415;-77
2023/06/04 22:16:26;;;;;;;3.90;3.50;;;23.00;20.80;;;;;;10448298;28;20228;-77
2023/06/04 22:21:29;;;;;;;3.90;3.60;;;22.90;20.60;;;;;;10445194;28;20229;-76
2023/06/04 22:26:34;;;;;;;4.30;3.17;;;22.90;20.70;;;;;;10443572;28;20228;-76
2023/06/04 22:31:40;;;;;;;3.47;3.17;;;22.90;21.20;;;;;;10442595;28;20283;-76
2023/06/04 22:36:44;;;;;;;3.30;3.10;;;22.80;20.90;;;;;;10444727;28;20230;-77
2023/06/04 22:41:49;;;;;;;4.30;3.40;;;22.70;21.00;;;;;;10437786;28;20233;-77
2023/06/04 22:46:52;;;;;;;3.30;3.00;;;22.60;21.30;;;;;;10445730;28;20559;-76
2023/06/04 22:51:55;;;;;;;4.83;3.60;;;22.60;21.10;;;;;;10438983;28;20891;-77
2023/06/04 22:57:00;;;;;;;3.60;3.30;;;22.50;21.20;;;;;;10446642;28;20260;-77
2023/06/04 23:02:03;;;;;;;3.97;3.50;;;22.50;21.20;;;;;;10450425;28;20319;-77
2023/06/04 23:07:06;;;;;;;3.73;3.43;;;22.40;21.10;;;;;;10448865;28;20769;-76
2023/06/04 23:12:11;;;;;;;5.33;3.67;;;22.40;21.10;;;;;;10440847;28;20229;-77
2023/06/04 23:17:14;;;;;;;3.53;3.23;;;22.40;21.40;;;;;;10445734;28;20221;-76
2023/06/04 23:22:17;;;;;;;3.80;3.50;;;22.30;20.90;;;;;;10452154;28;20255;-76
2023/06/04 23:27:22;;;;;;;3.90;3.20;;;22.30;20.80;;;;;;10454012;28;20228;-77
2023/06/04 23:32:25;;;;;;;3.00;2.80;;;22.20;20.60;;;;;;10441323;28;20233;-75
2023/06/04 23:37:28;;;;;;;3.30;2.83;;;22.10;20.50;;;;;;10432594;28;20218;-77
2023/06/04 23:42:35;;;;;;;2.63;2.43;;;22.10;20.60;;;;;;10446240;28;20519;-76
2023/06/04 23:47:39;;;;;;;2.57;2.40;;;22.10;21.10;;;;;;10447726;28;20224;-77
2023/06/04 23:52:42;;;;;;;3.17;2.87;;;22.00;21.00;;;;;;10440384;28;20225;-76
2023/06/04 23:57:46;;;;;;;2.53;2.30;;;22.00;21.20;;;;;;10451798;28;20769;-77
